sensor_id;sensor_type;location;lat;lon;timestamp;temperature;humidity
38726;DHT22;24474;48.906;8.808;2023-05-10T00:02:00;13.80;99.90
38726;DHT22;24474;48.906;8.808;2023-05-10T00:04:27;13.70;99.90
38726;DHT22;24474;48.906;8.808;2023-05-10T00:06:54;13.70;99.90
38726;DHT22;24474;48.906;8.808;2023-05-10T00:09:21;13.70;99.90
38726;DHT22;24474;48.906;8.808;2023-05-10T00:11:48;13.70;99.90
38726;DHT22;24474;48.906;8.808;2023-05-10T00:14:17;13.60;99.90
38726;DHT22;24474;48.906;8.808;2023-05-10T00:16:44;13.60;99.90
38726;DHT22;24474;48.906;8.808;2023-05-10T00:19:11;13.70;99.90
38726;DHT22;24474;48.906;8.808;2023-05-10T00:21:37;13.60;99.90
38726;DHT22;24474;48.906;8.808;2023-05-10T00:24:04;13.60;99.90
38726;DHT22;24474;48.906;8.808;2023-05-10T00:26:31;13.60;99.90
38726;DHT22;24474;48.906;8.808;2023-05-10T00:28:56;13.50;99.90
38726;DHT22;24474;48.906;8.808;2023-05-10T00:31:39;13.50;99.90
38726;DHT22;24474;48.906;8.808;2023-05-10T00:34:06;13.50;99.90
38726;DHT22;24474;48.906;8.808;2023-05-10T00:36:33;13.40;99.90
38726;DHT22;24474;48.906;8.808;2023-05-10T00:39:00;13.50;99.90
38726;DHT22;24474;48.906;8.808;2023-05-10T00:41:27;13.40;99.90
38726;DHT22;24474;48.906;8.808;2023-05-10T00:43:54;13.40;99.90
38726;DHT22;24474;48.906;8.808;2023-05-10T00:46:21;13.30;99.90
38726;DHT22;24474;48.906;8.808;2023-05-10T00:48:47;13.30;99.90
38726;DHT22;24474;48.906;8.808;2023-05-10T00:51:14;13.40;99.90
38726;DHT22;24474;48.906;8.808;2023-05-10T00:53:41;13.40;99.90
38726;DHT22;24474;48.906;8.808;2023-05-10T00:56:06;13.40;99.90
38726;DHT22;24474;48.906;8.808;2023-05-10T00:58:33;13.30;99.90
38726;DHT22;24474;48.906;8.808;2023-05-10T01:01:00;13.30;99.90
38726;DHT22;24474;48.906;8.808;2023-05-10T01:03:28;13.30;99.90
38726;DHT22;24474;48.906;8.808;2023-05-10T01:05:55;13.30;99.90
38726;DHT22;24474;48.906;8.808;2023-05-10T01:08:22;13.30;99.90
38726;DHT22;24474;48.906;8.808;2023-05-10T01:10:48;13.30;99.90
38726;DHT22;24474;48.906;8.808;2023-05-10T01:13:31;13.30;99.90
38726;DHT22;24474;48.906;8.808;2023-05-10T01:15:59;13.20;99.90
38726;DHT22;24474;48.906;8.808;2023-05-10T01:18:29;13.20;99.90
38726;DHT22;24474;48.906;8.808;2023-05-10T01:36:07;13.10;99.90
38726;DHT22;24474;48.906;8.808;2023-05-10T01:38:57;13.10;99.90
38726;DHT22;24474;48.906;8.808;2023-05-10T01:41:41;13.10;99.90
38726;DHT22;24474;48.906;8.808;2023-05-10T01:44:31;13.10;99.90
38726;DHT22;24474;48.906;8.808;2023-05-10T01:49:50;13.10;99.90
38726;DHT22;24474;48.906;8.808;2023-05-10T01:52:19;13.10;99.90
38726;DHT22;24474;48.906;8.808;2023-05-10T01:55:06;13.00;99.90
38726;DHT22;24474;48.906;8.808;2023-05-10T01:57:36;13.10;99.90
38726;DHT22;24474;48.906;8.808;2023-05-10T02:00:10;13.10;99.90
38726;DHT22;24474;48.906;8.808;2023-05-10T02:02:45;13.00;99.90
38726;DHT22;24474;48.906;8.808;2023-05-10T02:05:16;13.10;99.90
38726;DHT22;24474;48.906;8.808;2023-05-10T02:07:44;13.00;99.90
38726;DHT22;24474;48.906;8.808;2023-05-10T02:10:12;13.00;99.90
38726;DHT22;24474;48.906;8.808;2023-05-10T02:12:45;13.00;99.90
38726;DHT22;24474;48.906;8.808;2023-05-10T02:15:17;13.10;99.90
38726;DHT22;24474;48.906;8.808;2023-05-10T02:17:46;13.00;99.90
38726;DHT22;24474;48.906;8.808;2023-05-10T02:20:13;13.00;99.90
38726;DHT22;24474;48.906;8.808;2023-05-10T02:22:47;13.00;99.90
38726;DHT22;24474;48.906;8.808;2023-05-10T02:25:18;13.00;99.90
38726;DHT22;24474;48.906;8.808;2023-05-10T02:27:47;13.00;99.90
38726;DHT22;24474;48.906;8.808;2023-05-10T02:30:15;13.00;99.90
38726;DHT22;24474;48.906;8.808;2023-05-10T02:32:43;13.00;99.90
38726;DHT22;24474;48.906;8.808;2023-05-10T02:35:11;13.00;99.90
38726;DHT22;24474;48.906;8.808;2023-05-10T02:37:41;13.00;99.90
38726;DHT22;24474;48.906;8.808;2023-05-10T02:40:09;13.00;99.90
38726;DHT22;24474;48.906;8.808;2023-05-10T02:42:37;13.00;99.90
38726;DHT22;24474;48.906;8.808;2023-05-10T02:45:12;13.00;99.90
38726;DHT22;24474;48.906;8.808;2023-05-10T02:47:39;13.00;99.90
38726;DHT22;24474;48.906;8.808;2023-05-10T02:50:06;13.10;99.90
38726;DHT22;24474;48.906;8.808;2023-05-10T02:53:00;13.00;99.90
38726;DHT22;24474;48.906;8.808;2023-05-10T02:55:31;13.00;99.90
38726;DHT22;24474;48.906;8.808;2023-05-10T02:58:01;13.10;99.90
38726;DHT22;24474;48.906;8.808;2023-05-10T03:00:28;13.00;99.90
38726;DHT22;24474;48.906;8.808;2023-05-10T03:02:55;13.00;99.90
38726;DHT22;24474;48.906;8.808;2023-05-10T03:05:22;13.10;99.90
38726;DHT22;24474;48.906;8.808;2023-05-10T03:07:49;13.00;99.90
38726;DHT22;24474;48.906;8.808;2023-05-10T03:10:17;13.00;99.90
38726;DHT22;24474;48.906;8.808;2023-05-10T03:15:59;13.00;99.90
38726;DHT22;24474;48.906;8.808;2023-05-10T03:18:54;13.10;99.90
38726;DHT22;24474;48.906;8.808;2023-05-10T03:21:22;13.00;99.90
38726;DHT22;24474;48.906;8.808;2023-05-10T03:24:05;13.10;99.90
38726;DHT22;24474;48.906;8.808;2023-05-10T03:26:33;13.10;99.90
38726;DHT22;24474;48.906;8.808;2023-05-10T03:29:01;13.00;99.90
38726;DHT22;24474;48.906;8.808;2023-05-10T03:31:28;13.00;99.90
38726;DHT22;24474;48.906;8.808;2023-05-10T03:33:54;13.00;99.90
38726;DHT22;24474;48.906;8.808;2023-05-10T03:36:19;13.00;99.90
38726;DHT22;24474;48.906;8.808;2023-05-10T03:38:46;12.90;99.90
38726;DHT22;24474;48.906;8.808;2023-05-10T03:41:12;12.90;99.90
38726;DHT22;24474;48.906;8.808;2023-05-10T03:43:39;13.00;99.90
38726;DHT22;24474;48.906;8.808;2023-05-10T03:46:06;13.00;99.90
38726;DHT22;24474;48.906;8.808;2023-05-10T03:48:33;12.90;99.90
38726;DHT22;24474;48.906;8.808;2023-05-10T03:51:00;12.90;99.90
38726;DHT22;24474;48.906;8.808;2023-05-10T03:53:27;12.90;99.90
38726;DHT22;24474;48.906;8.808;2023-05-10T03:55:54;12.90;99.90
38726;DHT22;24474;48.906;8.808;2023-05-10T03:58:21;12.90;99.90
38726;DHT22;24474;48.906;8.808;2023-05-10T04:00:48;12.90;99.90
38726;DHT22;24474;48.906;8.808;2023-05-10T04:03:14;12.90;99.90
38726;DHT22;24474;48.906;8.808;2023-05-10T04:05:42;12.90;99.90
38726;DHT22;24474;48.906;8.808;2023-05-10T04:08:09;12.90;99.90
38726;DHT22;24474;48.906;8.808;2023-05-10T04:10:35;12.90;99.90
38726;DHT22;24474;48.906;8.808;2023-05-10T04:13:02;12.90;99.90
38726;DHT22;24474;48.906;8.808;2023-05-10T04:15:28;12.80;99.90
38726;DHT22;24474;48.906;8.808;2023-05-10T04:17:55;12.80;99.90
38726;DHT22;24474;48.906;8.808;2023-05-10T04:20:21;12.80;99.90
38726;DHT22;24474;48.906;8.808;2023-05-10T04:22:48;12.80;99.90
38726;DHT22;24474;48.906;8.808;2023-05-10T04:25:16;12.80;99.90
38726;DHT22;24474;48.906;8.808;2023-05-10T04:27:43;12.80;99.90
38726;DHT22;24474;48.906;8.808;2023-05-10T04:30:11;12.80;99.90
38726;DHT22;24474;48.906;8.808;2023-05-10T04:32:36;12.90;99.90
38726;DHT22;24474;48.906;8.808;2023-05-10T04:35:04;12.90;99.90
38726;DHT22;24474;48.906;8.808;2023-05-10T04:37:31;12.80;99.90
38726;DHT22;24474;48.906;8.808;2023-05-10T04:39:56;12.90;99.90
38726;DHT22;24474;48.906;8.808;2023-05-10T04:42:22;12.90;99.90
38726;DHT22;24474;48.906;8.808;2023-05-10T04:44:48;12.90;99.90
38726;DHT22;24474;48.906;8.808;2023-05-10T04:47:15;12.90;99.90
38726;DHT22;24474;48.906;8.808;2023-05-10T04:49:42;12.90;99.90
38726;DHT22;24474;48.906;8.808;2023-05-10T04:52:09;12.90;99.90
38726;DHT22;24474;48.906;8.808;2023-05-10T04:54:37;12.90;99.90
38726;DHT22;24474;48.906;8.808;2023-05-10T04:57:06;12.90;99.90
38726;DHT22;24474;48.906;8.808;2023-05-10T04:59:32;12.90;99.90
38726;DHT22;24474;48.906;8.808;2023-05-10T05:02:02;12.90;99.90
38726;DHT22;24474;48.906;8.808;2023-05-10T05:04:31;12.90;99.90
38726;DHT22;24474;48.906;8.808;2023-05-10T05:06:57;12.90;99.90
38726;DHT22;24474;48.906;8.808;2023-05-10T05:09:22;13.00;99.90
38726;DHT22;24474;48.906;8.808;2023-05-10T05:11:49;13.00;99.90
38726;DHT22;24474;48.906;8.808;2023-05-10T05:14:16;13.00;99.90
38726;DHT22;24474;48.906;8.808;2023-05-10T05:16:43;13.00;99.90
38726;DHT22;24474;48.906;8.808;2023-05-10T05:19:10;13.00;99.90
38726;DHT22;24474;48.906;8.808;2023-05-10T05:21:37;13.00;99.90
38726;DHT22;24474;48.906;8.808;2023-05-10T05:24:04;13.00;99.90
38726;DHT22;24474;48.906;8.808;2023-05-10T05:26:30;13.00;99.90
38726;DHT22;24474;48.906;8.808;2023-05-10T05:28:57;13.10;99.90
38726;DHT22;24474;48.906;8.808;2023-05-10T05:31:24;13.10;99.90
38726;DHT22;24474;48.906;8.808;2023-05-10T05:33:52;13.10;99.90
38726;DHT22;24474;48.906;8.808;2023-05-10T05:36:17;13.10;99.90
38726;DHT22;24474;48.906;8.808;2023-05-10T05:38:43;13.10;99.90
38726;DHT22;24474;48.906;8.808;2023-05-10T05:41:09;13.10;99.90
38726;DHT22;24474;48.906;8.808;2023-05-10T05:43:39;13.10;99.90
38726;DHT22;24474;48.906;8.808;2023-05-10T05:46:06;13.10;99.90
38726;DHT22;24474;48.906;8.808;2023-05-10T05:48:32;13.10;99.90
38726;DHT22;24474;48.906;8.808;2023-05-10T05:50:58;13.10;99.90
38726;DHT22;24474;48.906;8.808;2023-05-10T05:53:23;13.20;99.90
38726;DHT22;24474;48.906;8.808;2023-05-10T05:55:56;13.20;99.90
38726;DHT22;24474;48.906;8.808;2023-05-10T05:58:23;13.20;99.90
38726;DHT22;24474;48.906;8.808;2023-05-10T06:00:50;13.20;99.90
38726;DHT22;24474;48.906;8.808;2023-05-10T06:03:16;13.20;99.90
38726;DHT22;24474;48.906;8.808;2023-05-10T06:05:41;13.30;99.90
38726;DHT22;24474;48.906;8.808;2023-05-10T06:08:07;13.30;99.90
38726;DHT22;24474;48.906;8.808;2023-05-10T06:10:33;13.30;99.90
38726;DHT22;24474;48.906;8.808;2023-05-10T06:12:58;13.40;99.90
38726;DHT22;24474;48.906;8.808;2023-05-10T06:15:24;13.40;99.90
38726;DHT22;24474;48.906;8.808;2023-05-10T06:17:50;13.40;99.90
38726;DHT22;24474;48.906;8.808;2023-05-10T06:20:17;13.40;99.90
38726;DHT22;24474;48.906;8.808;2023-05-10T06:22:42;13.40;99.90
38726;DHT22;24474;48.906;8.808;2023-05-10T06:25:13;13.40;99.90
38726;DHT22;24474;48.906;8.808;2023-05-10T06:27:39;13.40;99.90
38726;DHT22;24474;48.906;8.808;2023-05-10T06:30:06;13.50;99.90
38726;DHT22;24474;48.906;8.808;2023-05-10T06:32:37;13.50;99.90
38726;DHT22;24474;48.906;8.808;2023-05-10T06:35:09;13.60;99.90
38726;DHT22;24474;48.906;8.808;2023-05-10T06:37:39;13.60;99.90
38726;DHT22;24474;48.906;8.808;2023-05-10T06:40:07;13.60;99.90
38726;DHT22;24474;48.906;8.808;2023-05-10T06:42:36;13.70;99.90
38726;DHT22;24474;48.906;8.808;2023-05-10T06:45:03;13.70;99.90
38726;DHT22;24474;48.906;8.808;2023-05-10T06:47:30;13.70;99.90
38726;DHT22;24474;48.906;8.808;2023-05-10T06:49:57;13.80;99.90
38726;DHT22;24474;48.906;8.808;2023-05-10T06:52:23;13.90;99.90
38726;DHT22;24474;48.906;8.808;2023-05-10T06:54:57;13.90;99.90
38726;DHT22;24474;48.906;8.808;2023-05-10T06:57:26;14.00;99.90
38726;DHT22;24474;48.906;8.808;2023-05-10T07:00:02;14.10;99.90
38726;DHT22;24474;48.906;8.808;2023-05-10T07:02:37;14.00;99.90
38726;DHT22;24474;48.906;8.808;2023-05-10T07:05:02;13.50;99.90
38726;DHT22;24474;48.906;8.808;2023-05-10T07:07:30;14.00;99.90
38726;DHT22;24474;48.906;8.808;2023-05-10T07:09:57;13.90;99.90
38726;DHT22;24474;48.906;8.808;2023-05-10T07:12:31;14.00;99.90
38726;DHT22;24474;48.906;8.808;2023-05-10T07:15:00;14.00;99.90
38726;DHT22;24474;48.906;8.808;2023-05-10T07:17:32;14.00;99.90
38726;DHT22;24474;48.906;8.808;2023-05-10T07:20:01;14.00;99.90
38726;DHT22;24474;48.906;8.808;2023-05-10T07:22:28;14.00;99.90
38726;DHT22;24474;48.906;8.808;2023-05-10T07:25:05;14.10;99.90
38726;DHT22;24474;48.906;8.808;2023-05-10T07:27:31;14.20;99.90
38726;DHT22;24474;48.906;8.808;2023-05-10T07:29:57;14.10;99.90
38726;DHT22;24474;48.906;8.808;2023-05-10T07:32:24;14.00;99.90
38726;DHT22;24474;48.906;8.808;2023-05-10T07:34:52;14.10;99.90
38726;DHT22;24474;48.906;8.808;2023-05-10T07:37:19;14.10;99.90
38726;DHT22;24474;48.906;8.808;2023-05-10T07:39:46;14.20;99.90
38726;DHT22;24474;48.906;8.808;2023-05-10T07:42:13;14.10;99.90
38726;DHT22;24474;48.906;8.808;2023-05-10T07:44:39;14.10;99.90
38726;DHT22;24474;48.906;8.808;2023-05-10T07:47:09;14.10;99.90
38726;DHT22;24474;48.906;8.808;2023-05-10T07:49:35;14.20;99.90
38726;DHT22;24474;48.906;8.808;2023-05-10T07:52:03;14.20;99.90
38726;DHT22;24474;48.906;8.808;2023-05-10T07:54:32;14.30;99.90
38726;DHT22;24474;48.906;8.808;2023-05-10T07:57:10;14.30;99.90
38726;DHT22;24474;48.906;8.808;2023-05-10T07:59:37;14.30;99.90
38726;DHT22;24474;48.906;8.808;2023-05-10T08:02:02;14.40;99.90
38726;DHT22;24474;48.906;8.808;2023-05-10T08:04:34;14.40;99.90
38726;DHT22;24474;48.906;8.808;2023-05-10T08:07:08;14.40;99.90
38726;DHT22;24474;48.906;8.808;2023-05-10T08:09:44;14.40;99.90
38726;DHT22;24474;48.906;8.808;2023-05-10T08:12:13;14.40;99.90
38726;DHT22;24474;48.906;8.808;2023-05-10T08:14:39;14.40;99.90
38726;DHT22;24474;48.906;8.808;2023-05-10T08:17:05;14.40;99.90
38726;DHT22;24474;48.906;8.808;2023-05-10T08:19:33;14.40;99.90
38726;DHT22;24474;48.906;8.808;2023-05-10T08:21:59;14.40;99.90
38726;DHT22;24474;48.906;8.808;2023-05-10T08:24:25;14.40;99.90
38726;DHT22;24474;48.906;8.808;2023-05-10T08:26:53;14.40;99.90
38726;DHT22;24474;48.906;8.808;2023-05-10T08:29:19;14.50;99.90
38726;DHT22;24474;48.906;8.808;2023-05-10T08:31:45;14.50;99.90
38726;DHT22;24474;48.906;8.808;2023-05-10T08:34:14;14.60;99.90
38726;DHT22;24474;48.906;8.808;2023-05-10T08:36:46;14.60;99.90
38726;DHT22;24474;48.906;8.808;2023-05-10T08:39:15;14.60;99.90
38726;DHT22;24474;48.906;8.808;2023-05-10T08:41:45;14.70;99.90
38726;DHT22;24474;48.906;8.808;2023-05-10T08:44:15;14.60;99.90
38726;DHT22;24474;48.906;8.808;2023-05-10T08:46:46;14.60;99.90
38726;DHT22;24474;48.906;8.808;2023-05-10T08:49:16;13.70;99.90
38726;DHT22;24474;48.906;8.808;2023-05-10T08:51:51;14.80;99.90
38726;DHT22;24474;48.906;8.808;2023-05-10T08:54:18;14.80;99.90
38726;DHT22;24474;48.906;8.808;2023-05-10T08:56:50;14.90;99.90
38726;DHT22;24474;48.906;8.808;2023-05-10T08:59:16;15.10;99.90
38726;DHT22;24474;48.906;8.808;2023-05-10T09:01:47;15.10;99.90
38726;DHT22;24474;48.906;8.808;2023-05-10T09:04:24;15.30;99.90
38726;DHT22;24474;48.906;8.808;2023-05-10T09:06:50;15.40;99.90
38726;DHT22;24474;48.906;8.808;2023-05-10T09:09:17;15.40;99.90
38726;DHT22;24474;48.906;8.808;2023-05-10T09:11:47;15.40;99.90
38726;DHT22;24474;48.906;8.808;2023-05-10T09:14:14;15.40;99.90
38726;DHT22;24474;48.906;8.808;2023-05-10T09:16:40;15.30;99.90
38726;DHT22;24474;48.906;8.808;2023-05-10T09:19:07;15.20;99.90
38726;DHT22;24474;48.906;8.808;2023-05-10T09:21:35;14.30;99.90
38726;DHT22;24474;48.906;8.808;2023-05-10T09:24:05;15.20;99.90
38726;DHT22;24474;48.906;8.808;2023-05-10T09:26:31;15.10;99.90
38726;DHT22;24474;48.906;8.808;2023-05-10T09:28:59;15.10;99.90
38726;DHT22;24474;48.906;8.808;2023-05-10T09:31:49;15.20;99.90
38726;DHT22;24474;48.906;8.808;2023-05-10T09:34:38;15.30;99.90
38726;DHT22;24474;48.906;8.808;2023-05-10T09:37:05;15.40;99.90
38726;DHT22;24474;48.906;8.808;2023-05-10T09:39:36;15.40;99.90
38726;DHT22;24474;48.906;8.808;2023-05-10T09:42:05;15.50;99.90
38726;DHT22;24474;48.906;8.808;2023-05-10T09:44:32;15.40;99.90
38726;DHT22;24474;48.906;8.808;2023-05-10T09:46:58;15.40;99.90
38726;DHT22;24474;48.906;8.808;2023-05-10T09:49:27;15.40;99.90
38726;DHT22;24474;48.906;8.808;2023-05-10T09:52:07;15.30;99.90
38726;DHT22;24474;48.906;8.808;2023-05-10T09:54:33;15.40;99.90
38726;DHT22;24474;48.906;8.808;2023-05-10T09:57:00;15.30;99.90
38726;DHT22;24474;48.906;8.808;2023-05-10T09:59:27;15.40;99.90
38726;DHT22;24474;48.906;8.808;2023-05-10T10:01:56;15.50;99.90
38726;DHT22;24474;48.906;8.808;2023-05-10T10:04:22;15.60;99.90
38726;DHT22;24474;48.906;8.808;2023-05-10T10:09:27;15.70;99.90
38726;DHT22;24474;48.906;8.808;2023-05-10T10:11:55;15.60;99.90
38726;DHT22;24474;48.906;8.808;2023-05-10T10:14:25;15.50;99.90
38726;DHT22;24474;48.906;8.808;2023-05-10T10:16:51;15.30;99.90
38726;DHT22;24474;48.906;8.808;2023-05-10T10:19:20;15.20;99.90
38726;DHT22;24474;48.906;8.808;2023-05-10T10:21:47;15.20;99.90
38726;DHT22;24474;48.906;8.808;2023-05-10T10:24:14;15.20;99.90
38726;DHT22;24474;48.906;8.808;2023-05-10T10:26:43;15.20;99.90
38726;DHT22;24474;48.906;8.808;2023-05-10T10:32:12;15.30;99.90
38726;DHT22;24474;48.906;8.808;2023-05-10T10:34:47;15.40;99.90
38726;DHT22;24474;48.906;8.808;2023-05-10T10:37:14;15.50;99.90
38726;DHT22;24474;48.906;8.808;2023-05-10T10:39:40;15.50;99.90
38726;DHT22;24474;48.906;8.808;2023-05-10T10:42:06;15.60;99.90
38726;DHT22;24474;48.906;8.808;2023-05-10T10:44:40;15.50;99.90
38726;DHT22;24474;48.906;8.808;2023-05-10T10:52:37;15.70;99.90
38726;DHT22;24474;48.906;8.808;2023-05-10T10:55:19;15.70;99.90
38726;DHT22;24474;48.906;8.808;2023-05-10T10:57:50;15.70;99.90
38726;DHT22;24474;48.906;8.808;2023-05-10T11:00:36;15.80;99.90
38726;DHT22;24474;48.906;8.808;2023-05-10T11:03:13;15.90;99.90
38726;DHT22;24474;48.906;8.808;2023-05-10T11:05:48;15.80;99.90
38726;DHT22;24474;48.906;8.808;2023-05-10T11:13:47;15.70;99.90
38726;DHT22;24474;48.906;8.808;2023-05-10T11:16:19;15.80;99.90
38726;DHT22;24474;48.906;8.808;2023-05-10T11:19:15;15.80;99.90
38726;DHT22;24474;48.906;8.808;2023-05-10T11:24:39;15.70;99.90
38726;DHT22;24474;48.906;8.808;2023-05-10T11:27:12;15.80;99.90
38726;DHT22;24474;48.906;8.808;2023-05-10T11:29:39;15.90;99.90
38726;DHT22;24474;48.906;8.808;2023-05-10T11:32:38;15.90;99.90
38726;DHT22;24474;48.906;8.808;2023-05-10T11:35:09;15.90;99.90
38726;DHT22;24474;48.906;8.808;2023-05-10T11:37:39;15.90;99.90
38726;DHT22;24474;48.906;8.808;2023-05-10T11:40:09;16.00;99.90
38726;DHT22;24474;48.906;8.808;2023-05-10T11:42:37;16.00;99.90
38726;DHT22;24474;48.906;8.808;2023-05-10T11:45:03;15.90;99.90
38726;DHT22;24474;48.906;8.808;2023-05-10T11:47:28;16.00;99.90
38726;DHT22;24474;48.906;8.808;2023-05-10T11:49:54;16.00;99.90
38726;DHT22;24474;48.906;8.808;2023-05-10T11:52:20;16.10;99.90
38726;DHT22;24474;48.906;8.808;2023-05-10T11:54:53;16.20;99.90
38726;DHT22;24474;48.906;8.808;2023-05-10T11:57:20;16.20;99.90
38726;DHT22;24474;48.906;8.808;2023-05-10T11:59:46;16.30;99.90
38726;DHT22;24474;48.906;8.808;2023-05-10T12:02:14;16.30;99.90
38726;DHT22;24474;48.906;8.808;2023-05-10T12:04:40;16.40;99.90
38726;DHT22;24474;48.906;8.808;2023-05-10T12:07:06;16.40;99.90
38726;DHT22;24474;48.906;8.808;2023-05-10T12:09:32;16.40;99.90
38726;DHT22;24474;48.906;8.808;2023-05-10T12:11:58;16.40;99.90
38726;DHT22;24474;48.906;8.808;2023-05-10T12:14:23;16.40;99.90
38726;DHT22;24474;48.906;8.808;2023-05-10T12:16:49;16.20;99.90
38726;DHT22;24474;48.906;8.808;2023-05-10T12:19:19;16.10;99.90
38726;DHT22;24474;48.906;8.808;2023-05-10T12:21:48;16.10;99.90
38726;DHT22;24474;48.906;8.808;2023-05-10T12:24:14;16.20;99.90
38726;DHT22;24474;48.906;8.808;2023-05-10T12:26:44;16.20;99.90
38726;DHT22;24474;48.906;8.808;2023-05-10T12:29:18;16.20;99.90
38726;DHT22;24474;48.906;8.808;2023-05-10T12:31:51;16.40;99.90
38726;DHT22;24474;48.906;8.808;2023-05-10T12:34:29;16.40;99.90
38726;DHT22;24474;48.906;8.808;2023-05-10T12:36:55;16.40;99.90
38726;DHT22;24474;48.906;8.808;2023-05-10T12:39:21;16.40;99.90
38726;DHT22;24474;48.906;8.808;2023-05-10T12:41:47;16.40;99.90
38726;DHT22;24474;48.906;8.808;2023-05-10T12:44:13;16.40;99.90
38726;DHT22;24474;48.906;8.808;2023-05-10T12:46:38;16.40;99.90
38726;DHT22;24474;48.906;8.808;2023-05-10T12:49:04;16.40;99.90
38726;DHT22;24474;48.906;8.808;2023-05-10T12:51:29;16.30;99.90
38726;DHT22;24474;48.906;8.808;2023-05-10T12:53:56;16.40;99.90
38726;DHT22;24474;48.906;8.808;2023-05-10T12:56:21;16.50;99.90
38726;DHT22;24474;48.906;8.808;2023-05-10T12:58:47;16.50;99.90
38726;DHT22;24474;48.906;8.808;2023-05-10T13:01:13;16.60;99.90
38726;DHT22;24474;48.906;8.808;2023-05-10T13:03:39;16.70;99.90
38726;DHT22;24474;48.906;8.808;2023-05-10T13:06:05;16.70;99.90
38726;DHT22;24474;48.906;8.808;2023-05-10T13:08:32;16.70;99.90
38726;DHT22;24474;48.906;8.808;2023-05-10T13:11:02;16.70;99.90
38726;DHT22;24474;48.906;8.808;2023-05-10T13:13:28;16.80;99.90
38726;DHT22;24474;48.906;8.808;2023-05-10T13:15:54;16.80;99.90
38726;DHT22;24474;48.906;8.808;2023-05-10T13:18:19;16.80;99.90
38726;DHT22;24474;48.906;8.808;2023-05-10T13:20:45;16.70;99.90
38726;DHT22;24474;48.906;8.808;2023-05-10T13:23:11;16.80;99.90
38726;DHT22;24474;48.906;8.808;2023-05-10T13:25:37;16.80;99.90
38726;DHT22;24474;48.906;8.808;2023-05-10T13:28:03;16.80;99.90
38726;DHT22;24474;48.906;8.808;2023-05-10T13:30:28;16.90;99.90
38726;DHT22;24474;48.906;8.808;2023-05-10T13:32:54;16.90;99.90
38726;DHT22;24474;48.906;8.808;2023-05-10T13:35:20;16.90;99.90
38726;DHT22;24474;48.906;8.808;2023-05-10T13:37:46;16.90;99.90
38726;DHT22;24474;48.906;8.808;2023-05-10T13:40:11;16.90;99.90
38726;DHT22;24474;48.906;8.808;2023-05-10T13:42:37;16.90;99.90
38726;DHT22;24474;48.906;8.808;2023-05-10T13:45:03;16.90;99.90
38726;DHT22;24474;48.906;8.808;2023-05-10T13:47:29;16.90;99.90
38726;DHT22;24474;48.906;8.808;2023-05-10T13:49:55;16.80;99.90
38726;DHT22;24474;48.906;8.808;2023-05-10T13:52:21;16.90;99.90
38726;DHT22;24474;48.906;8.808;2023-05-10T13:54:47;16.90;99.90
38726;DHT22;24474;48.906;8.808;2023-05-10T13:57:12;16.90;99.90
38726;DHT22;24474;48.906;8.808;2023-05-10T13:59:39;17.00;99.90
38726;DHT22;24474;48.906;8.808;2023-05-10T14:02:05;17.00;99.90
38726;DHT22;24474;48.906;8.808;2023-05-10T14:04:31;17.00;99.90
38726;DHT22;24474;48.906;8.808;2023-05-10T14:06:57;17.00;99.90
38726;DHT22;24474;48.906;8.808;2023-05-10T14:09:23;16.90;99.90
38726;DHT22;24474;48.906;8.808;2023-05-10T14:11:48;16.90;99.90
38726;DHT22;24474;48.906;8.808;2023-05-10T14:14:14;16.90;99.90
38726;DHT22;24474;48.906;8.808;2023-05-10T14:16:44;16.90;99.90
38726;DHT22;24474;48.906;8.808;2023-05-10T14:19:10;16.90;99.90
38726;DHT22;24474;48.906;8.808;2023-05-10T14:21:36;16.90;99.90
38726;DHT22;24474;48.906;8.808;2023-05-10T14:24:02;16.90;99.90
38726;DHT22;24474;48.906;8.808;2023-05-10T14:26:28;16.90;99.90
38726;DHT22;24474;48.906;8.808;2023-05-10T14:28:54;17.00;99.90
38726;DHT22;24474;48.906;8.808;2023-05-10T14:31:19;17.00;99.90
38726;DHT22;24474;48.906;8.808;2023-05-10T14:33:46;17.00;99.90
38726;DHT22;24474;48.906;8.808;2023-05-10T14:36:12;17.00;99.90
38726;DHT22;24474;48.906;8.808;2023-05-10T14:38:39;17.00;99.90
38726;DHT22;24474;48.906;8.808;2023-05-10T14:41:05;17.00;99.90
38726;DHT22;24474;48.906;8.808;2023-05-10T14:43:31;17.00;99.90
38726;DHT22;24474;48.906;8.808;2023-05-10T14:45:57;17.00;99.90
38726;DHT22;24474;48.906;8.808;2023-05-10T14:48:22;17.00;99.90
38726;DHT22;24474;48.906;8.808;2023-05-10T14:50:48;17.10;99.90
38726;DHT22;24474;48.906;8.808;2023-05-10T14:53:18;17.10;99.90
38726;DHT22;24474;48.906;8.808;2023-05-10T14:55:45;17.00;99.90
38726;DHT22;24474;48.906;8.808;2023-05-10T14:58:13;17.00;99.90
38726;DHT22;24474;48.906;8.808;2023-05-10T15:00:40;17.00;99.90
38726;DHT22;24474;48.906;8.808;2023-05-10T15:03:08;16.90;99.90
38726;DHT22;24474;48.906;8.808;2023-05-10T15:05:33;17.00;99.90
38726;DHT22;24474;48.906;8.808;2023-05-10T15:08:00;17.00;99.90
38726;DHT22;24474;48.906;8.808;2023-05-10T15:10:27;17.00;99.90
38726;DHT22;24474;48.906;8.808;2023-05-10T15:12:52;17.00;99.90
38726;DHT22;24474;48.906;8.808;2023-05-10T15:15:19;16.90;99.90
38726;DHT22;24474;48.906;8.808;2023-05-10T15:17:45;16.90;99.90
38726;DHT22;24474;48.906;8.808;2023-05-10T15:20:12;16.90;99.90
38726;DHT22;24474;48.906;8.808;2023-05-10T15:22:39;16.90;99.90
38726;DHT22;24474;48.906;8.808;2023-05-10T15:25:06;16.90;99.90
38726;DHT22;24474;48.906;8.808;2023-05-10T15:27:32;17.00;99.90
38726;DHT22;24474;48.906;8.808;2023-05-10T15:29:57;17.00;99.90
38726;DHT22;24474;48.906;8.808;2023-05-10T15:32:24;17.00;99.90
38726;DHT22;24474;48.906;8.808;2023-05-10T15:34:50;17.00;99.90
38726;DHT22;24474;48.906;8.808;2023-05-10T15:37:16;17.10;99.90
38726;DHT22;24474;48.906;8.808;2023-05-10T15:39:41;17.10;99.90
38726;DHT22;24474;48.906;8.808;2023-05-10T15:42:07;17.10;99.90
38726;DHT22;24474;48.906;8.808;2023-05-10T15:44:33;17.10;99.90
38726;DHT22;24474;48.906;8.808;2023-05-10T15:47:01;17.10;99.90
38726;DHT22;24474;48.906;8.808;2023-05-10T15:49:29;17.10;99.90
38726;DHT22;24474;48.906;8.808;2023-05-10T15:51:55;17.00;99.90
38726;DHT22;24474;48.906;8.808;2023-05-10T15:54:22;17.00;99.90
38726;DHT22;24474;48.906;8.808;2023-05-10T15:56:49;17.00;99.90
38726;DHT22;24474;48.906;8.808;2023-05-10T15:59:15;17.00;99.90
38726;DHT22;24474;48.906;8.808;2023-05-10T16:01:40;16.90;99.90
38726;DHT22;24474;48.906;8.808;2023-05-10T16:04:06;16.80;99.90
38726;DHT22;24474;48.906;8.808;2023-05-10T16:06:32;16.70;99.90
38726;DHT22;24474;48.906;8.808;2023-05-10T16:08:58;16.70;99.90
38726;DHT22;24474;48.906;8.808;2023-05-10T16:11:25;16.70;99.90
38726;DHT22;24474;48.906;8.808;2023-05-10T16:13:52;16.60;99.90
38726;DHT22;24474;48.906;8.808;2023-05-10T16:16:20;16.50;99.90
38726;DHT22;24474;48.906;8.808;2023-05-10T16:18:45;16.50;99.90